Time;durP1;ratioP1;P1;durP2;ratioP2;P2;SDS_P1;SDS_P2;PMS_P1;PMS_P2;Temp;Humidity;BMP_temperature;BMP_pressure;BME280_temperature;BME280_humidity;BME280_pressure;Samples;Min_cycle;Max_cycle;Signal;HPM_P1;HPM_P2
2022/06/09 00:00:45;;;;;;;11.55;5.05;;;;;;;;;;5047283;28;20040;-73
2022/06/09 00:03:22;;;;;;;11.85;5.22;;;;;;;;;;5047073;28;20041;-74
2022/06/09 00:05:53;;;;;;;6.93;5.32;;;;;;;;;;5047582;28;20068;-74
2022/06/09 00:08:23;;;;;;;14.52;4.53;;;;;;;;;;5046686;28;20063;-73
2022/06/09 00:10:57;;;;;;;8.43;4.55;;;;;;;;;;5047362;28;20488;-73
2022/06/09 00:13:28;;;;;;;6.38;4.35;;;;;;;;;;5047131;28;20554;-74
2022/06/09 00:16:10;;;;;;;5.45;3.67;;;;;;;;;;5047614;28;20061;-73
2022/06/09 00:18:40;;;;;;;6.10;3.42;;;;;;;;;;5047322;28;20045;-73
2022/06/09 00:21:11;;;;;;;5.80;3.78;;;;;;;;;;5047206;28;20044;-72
2022/06/09 00:23:41;;;;;;;9.25;3.20;;;;;;;;;;5046783;28;20606;-73
2022/06/09 00:26:11;;;;;;;4.93;2.58;;;;;;;;;;5047140;28;20530;-73
2022/06/09 00:28:41;;;;;;;2.45;2.20;;;;;;;;;;5047452;28;20044;-73
2022/06/09 00:31:11;;;;;;;5.13;2.70;;;;;;;;;;5047397;28;20056;-73
2022/06/09 00:33:41;;;;;;;2.95;2.67;;;;;;;;;;5047091;28;20037;-73
2022/06/09 00:36:11;;;;;;;4.78;2.33;;;;;;;;;;5045847;28;20059;-74
2022/06/09 00:38:41;;;;;;;5.72;2.08;;;;;;;;;;5046986;28;20052;-74
2022/06/09 00:41:11;;;;;;;6.72;2.10;;;;;;;;;;5046940;28;20051;-73
2022/06/09 00:43:43;;;;;;;6.20;1.95;;;;;;;;;;5046933;28;20041;-73
2022/06/09 00:46:25;;;;;;;6.50;2.25;;;;;;;;;;5046099;28;20056;-73
2022/06/09 00:49:06;;;;;;;6.57;2.10;;;;;;;;;;5046613;28;20040;-73
2022/06/09 00:51:48;;;;;;;4.20;2.17;;;;;;;;;;5046856;28;20055;-73
2022/06/09 00:54:23;;;;;;;5.22;2.97;;;;;;;;;;5046796;28;20041;-72
2022/06/09 00:57:18;;;;;;;3.10;2.50;;;;;;;;;;5044845;28;20056;-74
2022/06/09 00:59:52;;;;;;;6.18;2.97;;;;;;;;;;5046130;28;20629;-74
2022/06/09 01:02:25;;;;;;;9.32;3.60;;;;;;;;;;5044624;28;20057;-73
2022/06/09 01:04:55;;;;;;;7.35;3.70;;;;;;;;;;5046429;28;20055;-74
2022/06/09 01:07:32;;;;;;;13.70;5.32;;;;;;;;;;5045901;28;20061;-74
2022/06/09 01:10:03;;;;;;;9.48;5.95;;;;;;;;;;5046137;28;20044;-72
2022/06/09 01:12:39;;;;;;;8.63;6.22;;;;;;;;;;5046738;28;20061;-73
2022/06/09 01:15:19;;;;;;;13.05;7.10;;;;;;;;;;5046285;28;20045;-73
2022/06/09 01:18:04;;;;;;;22.63;7.20;;;;;;;;;;5044221;28;20053;-73
2022/06/09 01:21:06;;;;;;;13.98;7.25;;;;;;;;;;5046292;28;20040;-73
2022/06/09 01:23:57;;;;;;;13.27;7.18;;;;;;;;;;5045859;28;20037;-74
2022/06/09 01:26:41;;;;;;;14.98;7.20;;;;;;;;;;5046407;28;20049;-73
2022/06/09 01:29:29;;;;;;;12.90;7.28;;;;;;;;;;5046083;28;20053;-73
2022/06/09 01:32:10;;;;;;;12.63;7.28;;;;;;;;;;5046772;28;20068;-73
2022/06/09 01:34:53;;;;;;;14.30;6.50;;;;;;;;;;5046036;28;20538;-74
2022/06/09 01:37:53;;;;;;;11.63;6.38;;;;;;;;;;5045702;28;20420;-73
2022/06/09 01:40:24;;;;;;;8.52;6.15;;;;;;;;;;5043224;28;20505;-74
2022/06/09 01:42:56;;;;;;;8.10;5.60;;;;;;;;;;5045274;28;20045;-73
2022/06/09 01:45:54;;;;;;;20.20;8.38;;;;;;;;;;5047720;28;20085;-73
2022/06/09 01:48:25;;;;;;;12.85;8.55;;;;;;;;;;5045985;28;20040;-73
2022/06/09 01:50:57;;;;;;;;;;;;;;;;;;5046439;28;20056;-73
2022/06/09 01:53:34;;;;;;;12.23;7.80;;;;;;;;;;5045415;28;19924;-73
2022/06/09 01:56:09;;;;;;;21.63;9.15;;;;;;;;;;5046186;28;20143;-72
2022/06/09 01:58:45;;;;;;;18.75;8.82;;;;;;;;;;5046183;28;20530;-72
2022/06/09 02:01:20;;;;;;;24.00;12.18;;;;;;;;;;5046310;28;20514;-72
2022/06/09 02:03:56;;;;;;;40.22;13.45;;;;;;;;;;5046279;28;20055;-72
2022/06/09 02:06:27;;;;;;;39.05;13.90;;;;;;;;;;5045875;28;20049;-73
2022/06/09 02:08:58;;;;;;;38.08;15.25;;;;;;;;;;5047605;28;20072;-72
2022/06/09 02:11:28;;;;;;;25.17;12.40;;;;;;;;;;5050075;28;20064;-72
2022/06/09 02:13:58;;;;;;;36.15;12.95;;;;;;;;;;5049754;28;20059;-72
2022/06/09 02:16:28;;;;;;;29.25;10.15;;;;;;;;;;5049754;28;20064;-73
2022/06/09 02:18:58;;;;;;;34.53;11.55;;;;;;;;;;5049544;28;20053;-72
2022/06/09 02:21:32;;;;;;;141.23;24.17;;;;;;;;;;5049832;28;20440;-73
2022/06/09 02:24:02;;;;;;;78.07;21.67;;;;;;;;;;5049737;28;20052;-72
2022/06/09 02:26:33;;;;;;;92.78;19.20;;;;;;;;;;5049312;28;20056;-73
2022/06/09 02:29:03;;;;;;;78.50;17.52;;;;;;;;;;5049712;28;20056;-73
2022/06/09 02:31:33;;;;;;;159.73;20.33;;;;;;;;;;5049678;28;20049;-73
2022/06/09 02:34:03;;;;;;;110.00;12.88;;;;;;;;;;5048755;28;20045;-73
2022/06/09 02:36:33;;;;;;;94.90;13.63;;;;;;;;;;5048830;28;20419;-73
2022/06/09 02:39:03;;;;;;;68.53;12.02;;;;;;;;;;5048796;28;20048;-73
2022/06/09 02:41:34;;;;;;;60.37;11.93;;;;;;;;;;5047188;28;20516;-73
2022/06/09 02:44:04;;;;;;;61.90;12.00;;;;;;;;;;5049241;28;20286;-78
2022/06/09 02:46:35;;;;;;;83.32;11.80;;;;;;;;;;5049273;28;20049;-73
2022/06/09 02:49:05;;;;;;;109.10;13.93;;;;;;;;;;5049144;28;20495;-73
2022/06/09 02:51:39;;;;;;;115.90;12.55;;;;;;;;;;5048695;28;20427;-72
2022/06/09 02:54:12;;;;;;;129.75;12.68;;;;;;;;;;5049257;28;20064;-73
2022/06/09 02:56:42;;;;;;;122.50;14.68;;;;;;;;;;5049276;28;20045;-73
2022/06/09 02:59:12;;;;;;;65.57;11.88;;;;;;;;;;5049284;28;20048;-73
2022/06/09 03:01:42;;;;;;;61.47;11.95;;;;;;;;;;5047785;28;20053;-73
2022/06/09 03:04:12;;;;;;;162.40;16.98;;;;;;;;;;5048550;28;20488;-73
2022/06/09 03:06:42;;;;;;;156.25;24.23;;;;;;;;;;5048821;28;20056;-73
2022/06/09 03:09:12;;;;;;;162.13;25.20;;;;;;;;;;5048258;28;20531;-73
2022/06/09 03:11:42;;;;;;;168.27;26.52;;;;;;;;;;5048658;28;20063;-73
2022/06/09 03:14:12;;;;;;;272.23;29.95;;;;;;;;;;5047793;28;20045;-73
2022/06/09 03:16:41;;;;;;;184.70;29.45;;;;;;;;;;5048719;28;20052;-73
2022/06/09 03:19:11;;;;;;;304.25;33.72;;;;;;;;;;5048657;28;20053;-73
2022/06/09 03:21:42;;;;;;;211.15;27.55;;;;;;;;;;5048187;28;20045;-73
2022/06/09 03:24:12;;;;;;;198.60;21.80;;;;;;;;;;5049188;28;20508;-73
2022/06/09 03:26:43;;;;;;;200.60;16.92;;;;;;;;;;5048290;28;20063;-73
2022/06/09 03:29:13;;;;;;;258.03;15.73;;;;;;;;;;5048634;28;20057;-73
2022/06/09 03:31:43;;;;;;;310.33;17.60;;;;;;;;;;5048300;28;20040;-73
2022/06/09 03:34:14;;;;;;;292.35;16.50;;;;;;;;;;5048431;28;20048;-73
2022/06/09 03:36:43;;;;;;;329.15;21.38;;;;;;;;;;5048313;28;20055;-72
2022/06/09 03:39:14;;;;;;;255.30;15.48;;;;;;;;;;5048199;28;20408;-73
2022/06/09 03:41:44;;;;;;;127.55;14.13;;;;;;;;;;5047981;28;20060;-73
2022/06/09 03:44:13;;;;;;;158.55;15.68;;;;;;;;;;5048050;28;20056;-73
2022/06/09 03:46:43;;;;;;;104.53;13.00;;;;;;;;;;5048031;28;20041;-73
2022/06/09 03:49:14;;;;;;;368.95;19.95;;;;;;;;;;5048679;28;20053;-73
2022/06/09 03:51:43;;;;;;;194.88;19.15;;;;;;;;;;5047916;28;20040;-73
2022/06/09 03:54:14;;;;;;;182.60;17.50;;;;;;;;;;5047984;28;20053;-72
2022/06/09 03:56:44;;;;;;;202.38;16.80;;;;;;;;;;5046499;28;20049;-73
2022/06/09 03:59:14;;;;;;;225.90;16.52;;;;;;;;;;5047705;28;20049;-73
2022/06/09 04:01:43;;;;;;;152.68;14.75;;;;;;;;;;5047748;28;20041;-73
2022/06/09 04:04:13;;;;;;;232.98;17.27;;;;;;;;;;5047453;28;20067;-73
2022/06/09 04:06:43;;;;;;;222.60;18.13;;;;;;;;;;5047597;28;20085;-73
2022/06/09 04:09:13;;;;;;;263.95;20.98;;;;;;;;;;5048053;28;20063;-74
2022/06/09 04:11:43;;;;;;;209.52;20.40;;;;;;;;;;5047979;28;20523;-73
2022/06/09 04:14:13;;;;;;;262.35;21.60;;;;;;;;;;5047863;28;20053;-73
2022/06/09 04:16:44;;;;;;;200.48;18.05;;;;;;;;;;5047480;28;20052;-73
2022/06/09 04:19:17;;;;;;;201.57;14.82;;;;;;;;;;5047195;28;20048;-74
2022/06/09 04:21:48;;;;;;;130.75;15.05;;;;;;;;;;5047725;28;20068;-74
2022/06/09 04:24:19;;;;;;;153.80;15.55;;;;;;;;;;5047278;28;20041;-73
2022/06/09 04:26:49;;;;;;;172.85;18.73;;;;;;;;;;5047467;28;20500;-73
2022/06/09 04:29:19;;;;;;;265.70;22.77;;;;;;;;;;5045522;28;20587;-74
2022/06/09 04:31:49;;;;;;;188.95;19.65;;;;;;;;;;5046950;28;20045;-73
2022/06/09 04:34:18;;;;;;;147.88;17.25;;;;;;;;;;5047549;28;20053;-72
2022/06/09 04:36:48;;;;;;;238.85;20.70;;;;;;;;;;5046296;28;20400;-72
2022/06/09 04:39:18;;;;;;;199.70;20.45;;;;;;;;;;5047291;28;20048;-72
2022/06/09 04:41:48;;;;;;;213.82;19.35;;;;;;;;;;5046915;28;20060;-71
2022/06/09 04:44:18;;;;;;;145.02;18.00;;;;;;;;;;5046832;28;20523;-72
2022/06/09 04:46:48;;;;;;;93.60;14.90;;;;;;;;;;5046550;28;20120;-71
2022/06/09 04:49:18;;;;;;;104.22;14.65;;;;;;;;;;5046904;28;20045;-71
2022/06/09 04:51:48;;;;;;;131.43;16.42;;;;;;;;;;5046681;28;20431;-72
2022/06/09 04:54:18;;;;;;;176.13;15.68;;;;;;;;;;5045168;28;20059;-72
2022/06/09 04:56:47;;;;;;;149.68;16.17;;;;;;;;;;5047080;28;20051;-71
2022/06/09 04:59:17;;;;;;;85.68;13.80;;;;;;;;;;5046764;28;20049;-71
2022/06/09 05:01:47;;;;;;;161.90;17.27;;;;;;;;;;5045931;28;20056;-72
2022/06/09 05:04:17;;;;;;;142.50;15.40;;;;;;;;;;5045584;28;20059;-71
2022/06/09 05:06:47;;;;;;;127.10;16.92;;;;;;;;;;5046457;28;20053;-72
2022/06/09 05:09:17;;;;;;;132.35;14.32;;;;;;;;;;5045976;28;20064;-73
2022/06/09 05:11:49;;;;;;;135.85;13.35;;;;;;;;;;5046666;28;20055;-74
2022/06/09 05:14:19;;;;;;;161.70;12.98;;;;;;;;;;5045515;28;20530;-72
2022/06/09 05:16:49;;;;;;;136.38;12.25;;;;;;;;;;5046865;28;20053;-73
2022/06/09 05:19:19;;;;;;;199.57;14.75;;;;;;;;;;5046408;28;20045;-73
2022/06/09 05:21:49;;;;;;;212.13;16.70;;;;;;;;;;5046607;28;20112;-74
2022/06/09 05:24:20;;;;;;;220.85;18.25;;;;;;;;;;5046190;28;20052;-73
2022/06/09 05:26:50;;;;;;;298.00;18.55;;;;;;;;;;5046618;28;20048;-73
2022/06/09 05:29:20;;;;;;;197.98;17.42;;;;;;;;;;5047087;28;20049;-72
2022/06/09 05:31:50;;;;;;;159.60;15.85;;;;;;;;;;5046643;28;20503;-74
2022/06/09 05:34:20;;;;;;;252.63;18.85;;;;;;;;;;5046228;28;20044;-74
2022/06/09 05:36:50;;;;;;;247.63;16.65;;;;;;;;;;5046003;28;20053;-73
2022/06/09 05:45:04;;;;;;;267.63;18.42;;;;;;;;;;5049672;28;20496;-74
2022/06/09 05:47:35;;;;;;;226.55;19.02;;;;;;;;;;5050151;28;20061;-74
2022/06/09 05:50:06;;;;;;;289.08;21.13;;;;;;;;;;5049243;28;20041;-73
2022/06/09 05:52:37;;;;;;;295.13;18.55;;;;;;;;;;5051579;28;20119;-73
2022/06/09 05:55:08;;;;;;;187.23;18.43;;;;;;;;;;5050014;28;20045;-73
2022/06/09 05:57:44;;;;;;;339.70;22.13;;;;;;;;;;5051311;28;20056;-73
2022/06/09 06:00:14;;;;;;;350.42;22.17;;;;;;;;;;5050901;28;20045;-73
2022/06/09 06:02:44;;;;;;;230.43;20.10;;;;;;;;;;5048199;28;20439;-73
2022/06/09 06:08:03;;;;;;;223.48;22.55;;;;;;;;;;5049765;28;20068;-73
2022/06/09 06:10:33;;;;;;;193.30;21.33;;;;;;;;;;5049810;28;20048;-73
2022/06/09 06:13:03;;;;;;;149.00;20.48;;;;;;;;;;5049729;28;20049;-74
2022/06/09 06:15:33;;;;;;;257.92;20.73;;;;;;;;;;5049686;28;20041;-74
2022/06/09 06:18:03;;;;;;;163.05;20.20;;;;;;;;;;5049894;28;20523;-73
2022/06/09 06:20:34;;;;;;;159.38;20.33;;;;;;;;;;5049798;28;20053;-74
2022/06/09 06:23:04;;;;;;;;;;;;;;;;;;5050230;28;20037;-73
2022/06/09 06:25:35;;;;;;;250.00;20.88;;;;;;;;;;5050050;28;19921;-73
2022/06/09 06:28:05;;;;;;;277.63;22.65;;;;;;;;;;5049424;28;20052;-73
2022/06/09 06:30:35;;;;;;;244.65;20.90;;;;;;;;;;5049662;28;20055;-73
2022/06/09 06:33:05;;;;;;;209.02;21.42;;;;;;;;;;5048357;28;20435;-73
2022/06/09 06:35:35;;;;;;;451.90;26.05;;;;;;;;;;5049244;28;20080;-73
2022/06/09 06:38:05;;;;;;;399.33;28.13;;;;;;;;;;5047089;28;20053;-73
2022/06/09 06:40:37;;;;;;;228.27;22.77;;;;;;;;;;5046208;28;20512;-72
2022/06/09 06:43:07;;;;;;;297.02;23.95;;;;;;;;;;5046070;28;20500;-72
2022/06/09 06:45:37;;;;;;;338.10;25.48;;;;;;;;;;5046880;28;20060;-72
2022/06/09 06:48:07;;;;;;;254.85;22.55;;;;;;;;;;5048913;28;20052;-73
2022/06/09 06:50:37;;;;;;;243.55;20.80;;;;;;;;;;5049419;28;20056;-73
2022/06/09 06:53:09;;;;;;;302.60;22.30;;;;;;;;;;5049053;28;20049;-73
2022/06/09 06:55:40;;;;;;;270.23;22.38;;;;;;;;;;5048105;28;20048;-72
2022/06/09 06:58:10;;;;;;;;;;;;;;;;;;5049602;28;20396;-73
2022/06/09 07:00:40;;;;;;;222.35;18.55;;;;;;;;;;5049064;28;19928;-72
2022/06/09 07:03:12;;;;;;;254.18;19.63;;;;;;;;;;5048727;28;20059;-73
2022/06/09 07:05:59;;;;;;;227.25;16.73;;;;;;;;;;5049278;28;20045;-73
2022/06/09 07:08:30;;;;;;;273.05;20.85;;;;;;;;;;5048555;28;20508;-73
2022/06/09 07:11:00;;;;;;;300.67;21.25;;;;;;;;;;5048621;28;20655;-72
2022/06/09 07:13:30;;;;;;;171.40;15.50;;;;;;;;;;5048766;28;20048;-72
2022/06/09 07:16:00;;;;;;;234.50;19.25;;;;;;;;;;5047208;28;20064;-73
2022/06/09 07:18:32;;;;;;;172.20;17.48;;;;;;;;;;5048384;28;20416;-74
2022/06/09 07:21:04;;;;;;;357.15;26.58;;;;;;;;;;5048179;28;20815;-72
2022/06/09 07:23:35;;;;;;;195.85;19.10;;;;;;;;;;5047867;28;20048;-73
2022/06/09 07:26:05;;;;;;;;;;;;;;;;;;5048949;28;20048;-73
2022/06/09 07:28:35;;;;;;;311.05;20.20;;;;;;;;;;5047814;28;19928;-74
2022/06/09 07:31:06;;;;;;;272.35;19.05;;;;;;;;;;5048381;28;20041;-74
2022/06/09 07:33:37;;;;;;;;;;;;;;;;;;5048631;28;20420;-73
2022/06/09 07:36:11;;;;;;;359.35;21.88;;;;;;;;;;5048497;28;19943;-74
2022/06/09 07:38:41;;;;;;;340.13;21.92;;;;;;;;;;5048604;28;20052;-80
2022/06/09 07:41:12;;;;;;;232.57;21.17;;;;;;;;;;5048028;28;20049;-73
2022/06/09 07:44:06;;;;;;;219.65;20.25;;;;;;;;;;5047977;28;20045;-73
2022/06/09 07:46:36;;;;;;;256.85;19.80;;;;;;;;;;5048364;28;20407;-73
2022/06/09 07:49:07;;;;;;;172.30;17.17;;;;;;;;;;5048630;28;20053;-72
2022/06/09 07:51:39;;;;;;;231.60;19.63;;;;;;;;;;5047480;28;20531;-73
2022/06/09 07:54:15;;;;;;;196.55;17.83;;;;;;;;;;5047913;28;20045;-73
2022/06/09 07:56:45;;;;;;;105.65;16.83;;;;;;;;;;5047913;28;20045;-73
2022/06/09 07:59:16;;;;;;;165.80;17.85;;;;;;;;;;5047696;28;20072;-74
2022/06/09 08:01:46;;;;;;;183.80;16.85;;;;;;;;;;5048172;28;20048;-73
2022/06/09 08:04:16;;;;;;;244.25;20.00;;;;;;;;;;5047279;28;20056;-73
2022/06/09 08:06:46;;;;;;;177.82;17.80;;;;;;;;;;5046972;28;20060;-74
2022/06/09 08:09:16;;;;;;;183.48;17.52;;;;;;;;;;5047715;28;20060;-73
2022/06/09 08:11:47;;;;;;;218.40;19.63;;;;;;;;;;5047281;28;20523;-72
2022/06/09 08:14:17;;;;;;;;;;;;;;;;;;5048334;28;20752;-72
2022/06/09 08:16:53;;;;;;;266.08;18.90;;;;;;;;;;5047995;28;19932;-72
2022/06/09 08:19:23;;;;;;;155.40;17.17;;;;;;;;;;5046079;28;20057;-73
2022/06/09 08:21:54;;;;;;;209.30;18.83;;;;;;;;;;5047864;28;20079;-73
2022/06/09 08:24:24;;;;;;;157.73;17.10;;;;;;;;;;5047370;28;20057;-74
2022/06/09 08:26:54;;;;;;;234.43;20.20;;;;;;;;;;5046996;28;20056;-73
2022/06/09 08:29:26;;;;;;;180.93;17.63;;;;;;;;;;5047223;28;20057;-74
2022/06/09 08:31:56;;;;;;;179.95;18.27;;;;;;;;;;5047178;28;20516;-72
2022/06/09 08:34:26;;;;;;;187.32;19.45;;;;;;;;;;5047395;28;20053;-73
2022/06/09 08:36:56;;;;;;;300.42;21.42;;;;;;;;;;5047025;28;20049;-73
2022/06/09 08:39:26;;;;;;;170.00;16.33;;;;;;;;;;5046467;28;20049;-73
2022/06/09 08:42:19;;;;;;;222.13;17.77;;;;;;;;;;5047774;28;20052;-74
2022/06/09 08:45:03;;;;;;;165.70;16.50;;;;;;;;;;5047151;28;20064;-73
2022/06/09 08:47:46;;;;;;;174.18;16.80;;;;;;;;;;5047193;28;20060;-73
2022/06/09 08:50:46;;;;;;;103.82;13.32;;;;;;;;;;5046906;28;20056;-73
2022/06/09 08:53:32;;;;;;;171.27;15.85;;;;;;;;;;5044169;28;20052;-74
2022/06/09 08:56:12;;;;;;;286.85;17.63;;;;;;;;;;5046212;28;20077;-74
2022/06/09 08:58:47;;;;;;;154.00;16.98;;;;;;;;;;5046765;28;20048;-74
2022/06/09 09:01:28;;;;;;;190.57;18.98;;;;;;;;;;5045617;28;20056;-74
2022/06/09 09:04:05;;;;;;;184.93;17.23;;;;;;;;;;5046847;28;20041;-73
2022/06/09 09:06:41;;;;;;;152.38;15.75;;;;;;;;;;5046741;28;20045;-74
2022/06/09 09:09:22;;;;;;;228.13;17.02;;;;;;;;;;5046948;28;20052;-73
2022/06/09 09:12:22;;;;;;;406.95;20.40;;;;;;;;;;5047025;28;20056;-73
2022/06/09 09:15:30;;;;;;;187.00;16.48;;;;;;;;;;5046571;28;20092;-74
2022/06/09 09:18:24;;;;;;;205.82;18.30;;;;;;;;;;5045992;28;20056;-73
2022/06/09 09:21:40;;;;;;;201.55;20.23;;;;;;;;;;5046540;28;20511;-74
2022/06/09 09:24:18;;;;;;;222.75;20.30;;;;;;;;;;5024187;28;20060;-75
2022/06/09 09:27:01;;;;;;;259.73;18.13;;;;;;;;;;5046173;28;20041;-73
2022/06/09 09:29:54;;;;;;;248.02;20.00;;;;;;;;;;5046020;28;20052;-75
2022/06/09 09:32:34;;;;;;;330.70;19.55;;;;;;;;;;5040156;28;20075;-74
2022/06/09 09:35:09;;;;;;;291.45;18.52;;;;;;;;;;5045785;28;20399;-72
2022/06/09 09:37:45;;;;;;;304.73;20.48;;;;;;;;;;5047116;28;20738;-74
2022/06/09 09:40:24;;;;;;;162.88;15.45;;;;;;;;;;5046891;28;20056;-73
2022/06/09 09:42:57;;;;;;;287.27;16.25;;;;;;;;;;5046853;28;20056;-73
2022/06/09 09:45:41;;;;;;;236.88;16.88;;;;;;;;;;5046482;28;20049;-74
2022/06/09 09:48:17;;;;;;;295.73;17.00;;;;;;;;;;5045955;28;20045;-74
2022/06/09 09:50:58;;;;;;;197.60;15.18;;;;;;;;;;5046242;28;20049;-76
2022/06/09 09:53:34;;;;;;;248.20;17.50;;;;;;;;;;5046182;28;20922;-73
2022/06/09 09:56:15;;;;;;;109.15;13.63;;;;;;;;;;5046743;28;20056;-76
2022/06/09 09:58:48;;;;;;;126.00;13.70;;;;;;;;;;5046096;28;20053;-73
2022/06/09 10:10:58;;;;;;;236.43;17.20;;;;;;;;;;5044583;28;20053;-81
2022/06/09 10:13:33;;;;;;;119.75;13.32;;;;;;;;;;5045860;28;20045;-76
2022/06/09 10:16:21;;;;;;;147.20;13.52;;;;;;;;;;5045703;28;20052;-73
2022/06/09 10:19:16;;;;;;;147.70;18.50;;;;;;;;;;5045508;28;20492;-78
2022/06/09 10:22:19;;;;;;;208.30;13.63;;;;;;;;;;5046137;28;20053;-73
2022/06/09 10:25:26;;;;;;;152.88;18.73;;;;;;;;;;5044404;28;20049;-73
2022/06/09 10:28:14;;;;;;;157.43;14.68;;;;;;;;;;5046178;28;20045;-73
2022/06/09 10:30:51;;;;;;;90.65;12.55;;;;;;;;;;5048273;28;20063;-75
2022/06/09 10:33:38;;;;;;;295.25;18.75;;;;;;;;;;5049348;28;20052;-74
2022/06/09 10:36:30;;;;;;;195.43;15.07;;;;;;;;;;5049104;28;20053;-73
2022/06/09 10:39:09;;;;;;;120.53;12.30;;;;;;;;;;5049208;28;20049;-75
2022/06/09 10:41:51;;;;;;;162.43;16.55;;;;;;;;;;5048935;28;20041;-72
2022/06/09 10:44:36;;;;;;;189.07;14.93;;;;;;;;;;5047814;28;20041;-80
2022/06/09 10:56:49;;;;;;;99.78;12.73;;;;;;;;;;5049197;28;20056;-73
2022/06/09 10:59:22;;;;;;;59.05;14.13;;;;;;;;;;5049241;28;20040;-72
2022/06/09 11:01:53;;;;;;;90.05;13.32;;;;;;;;;;5048754;28;20056;-74
2022/06/09 11:04:24;;;;;;;92.00;12.93;;;;;;;;;;5049446;28;20053;-73
2022/06/09 11:07:23;;;;;;;164.38;14.85;;;;;;;;;;5048441;28;20127;-72
2022/06/09 11:10:19;;;;;;;109.17;14.43;;;;;;;;;;5048779;28;20051;-73
2022/06/09 11:12:49;;;;;;;121.07;13.95;;;;;;;;;;5027745;28;20298;-74
2022/06/09 11:15:18;;;;;;;253.05;15.82;;;;;;;;;;5048114;28;20057;-72
2022/06/09 11:18:03;;;;;;;92.53;13.20;;;;;;;;;;5047763;28;20041;-71
2022/06/09 11:20:33;;;;;;;202.93;17.58;;;;;;;;;;5049100;28;20052;-72
2022/06/09 11:23:15;;;;;;;162.57;15.65;;;;;;;;;;5048300;28;20518;-73
2022/06/09 11:26:07;;;;;;;158.85;15.77;;;;;;;;;;5047156;28;20053;-73
2022/06/09 11:29:03;;;;;;;112.38;13.63;;;;;;;;;;5046391;28;20044;-75
2022/06/09 11:31:33;;;;;;;124.30;11.73;;;;;;;;;;5048663;28;20055;-74
2022/06/09 11:34:30;;;;;;;168.65;12.13;;;;;;;;;;5048106;28;20052;-74
2022/06/09 11:37:16;;;;;;;120.70;15.27;;;;;;;;;;5048284;28;20049;-76
2022/06/09 11:40:14;;;;;;;101.25;12.88;;;;;;;;;;5046706;28;20052;-74
2022/06/09 11:43:23;;;;;;;124.78;14.40;;;;;;;;;;5046648;28;20060;-76
2022/06/09 11:46:09;;;;;;;173.45;12.38;;;;;;;;;;5012373;28;20527;-76
2022/06/09 11:48:44;;;;;;;191.27;13.68;;;;;;;;;;5047896;28;20049;-73
2022/06/09 11:51:18;;;;;;;48.30;13.77;;;;;;;;;;5046595;28;20053;-73
2022/06/09 11:53:53;;;;;;;190.35;12.93;;;;;;;;;;5048198;28;20045;-74
2022/06/09 11:56:33;;;;;;;255.15;13.75;;;;;;;;;;5047944;28;20492;-73
2022/06/09 11:59:43;;;;;;;290.23;14.90;;;;;;;;;;5047828;28;20060;-75
2022/06/09 12:02:40;;;;;;;387.85;49.75;;;;;;;;;;5047979;28;20048;-73
2022/06/09 12:05:34;;;;;;;324.85;37.38;;;;;;;;;;5047629;28;20049;-73
2022/06/09 12:08:18;;;;;;;394.27;30.73;;;;;;;;;;5047744;28;20060;-73
2022/06/09 12:11:06;;;;;;;275.48;15.35;;;;;;;;;;5047862;28;20044;-74
2022/06/09 12:13:59;;;;;;;284.55;27.83;;;;;;;;;;5046760;28;20052;-73
2022/06/09 12:16:36;;;;;;;246.35;22.15;;;;;;;;;;5047630;28;20050;-76
2022/06/09 12:19:19;;;;;;;481.38;18.98;;;;;;;;;;5047506;28;20045;-75
2022/06/09 12:21:56;;;;;;;235.70;13.02;;;;;;;;;;5047624;28;20690;-73
2022/06/09 12:24:36;;;;;;;97.75;9.32;;;;;;;;;;5046946;28;20045;-75
2022/06/09 12:27:45;;;;;;;211.73;15.93;;;;;;;;;;5047007;28;20049;-74
2022/06/09 12:30:18;;;;;;;70.47;9.50;;;;;;;;;;5047510;28;20048;-74
2022/06/09 12:33:14;;;;;;;400.90;16.55;;;;;;;;;;5047504;28;20045;-73
2022/06/09 12:36:02;;;;;;;533.67;17.98;;;;;;;;;;5047993;28;20049;-72
2022/06/09 12:38:38;;;;;;;245.68;12.65;;;;;;;;;;5047450;28;20049;-73
2022/06/09 12:41:37;;;;;;;177.65;11.38;;;;;;;;;;5047127;28;20051;-72
2022/06/09 12:44:23;;;;;;;102.88;10.02;;;;;;;;;;5046760;28;20053;-73
2022/06/09 12:47:21;;;;;;;75.30;11.10;;;;;;;;;;5045479;28;20060;-71
2022/06/09 12:49:57;;;;;;;49.85;12.45;;;;;;;;;;5047034;28;20053;-72
2022/06/09 12:52:32;;;;;;;267.65;11.80;;;;;;;;;;5046837;28;20053;-72
2022/06/09 12:55:16;;;;;;;155.45;10.73;;;;;;;;;;5046494;28;20484;-73
2022/06/09 12:57:51;;;;;;;125.57;9.40;;;;;;;;;;5029612;28;20041;-73
2022/06/09 13:00:45;;;;;;;16.98;9.35;;;;;;;;;;5045908;28;20060;-73
2022/06/09 13:03:23;;;;;;;10.82;7.20;;;;;;;;;;5047073;28;20056;-73
2022/06/09 13:05:53;;;;;;;46.70;8.45;;;;;;;;;;5046469;28;20049;-73
2022/06/09 13:08:27;;;;;;;62.95;8.00;;;;;;;;;;5046529;28;20064;-72
2022/06/09 13:11:14;;;;;;;36.20;8.10;;;;;;;;;;5046369;28;20053;-72
2022/06/09 13:13:45;;;;;;;25.65;8.30;;;;;;;;;;5046538;28;20052;-72
2022/06/09 13:16:24;;;;;;;37.33;8.47;;;;;;;;;;5046580;28;20056;-74
2022/06/09 13:18:58;;;;;;;30.17;8.50;;;;;;;;;;5046732;28;20299;-73
2022/06/09 13:21:39;;;;;;;21.02;8.43;;;;;;;;;;5046636;28;20052;-74
2022/06/09 13:24:24;;;;;;;69.30;8.20;;;;;;;;;;5046391;28;20049;-73
2022/06/09 13:26:56;;;;;;;39.15;23.13;;;;;;;;;;5046779;28;20500;-73
2022/06/09 13:29:39;;;;;;;16.40;7.00;;;;;;;;;;5046499;28;20124;-73
2022/06/09 13:32:40;;;;;;;12.77;9.45;;;;;;;;;;5044843;28;20049;-75
2022/06/09 13:35:37;;;;;;;21.23;17.55;;;;;;;;;;5046507;28;20033;-73
2022/06/09 13:38:20;;;;;;;11.65;6.40;;;;;;;;;;5046466;28;20048;-79
2022/06/09 13:41:20;;;;;;;6.38;5.70;;;;;;;;;;5046469;28;20056;-74
2022/06/09 13:43:56;;;;;;;8.65;5.55;;;;;;;;;;5046620;28;20519;-74
2022/06/09 13:46:29;;;;;;;11.95;5.70;;;;;;;;;;5046969;28;20037;-73
2022/06/09 13:49:07;;;;;;;8.32;7.10;;;;;;;;;;5046128;28;20071;-74
2022/06/09 13:51:59;;;;;;;8.32;6.05;;;;;;;;;;5046744;28;20049;-74
2022/06/09 13:54:39;;;;;;;7.43;6.03;;;;;;;;;;5046247;28;20041;-74
2022/06/09 13:57:36;;;;;;;7.43;5.68;;;;;;;;;;5044784;28;20056;-74
2022/06/09 14:00:24;;;;;;;7.93;5.75;;;;;;;;;;5044437;28;20052;-75
2022/06/09 14:02:54;;;;;;;30.80;8.07;;;;;;;;;;5046188;28;20048;-73
2022/06/09 14:05:32;;;;;;;6.50;5.68;;;;;;;;;;5048548;28;20064;-73
2022/06/09 14:08:03;;;;;;;7.93;6.00;;;;;;;;;;5049997;28;20056;-73
2022/06/09 14:10:34;;;;;;;16.67;6.47;;;;;;;;;;5049977;28;20048;-73
2022/06/09 14:13:04;;;;;;;6.45;5.85;;;;;;;;;;5049760;28;20048;-73
2022/06/09 14:15:35;;;;;;;;;;;;;;;;;;5051671;28;20056;-74
2022/06/09 14:18:05;;;;;;;6.68;5.28;;;;;;;;;;5050403;28;19920;-74
2022/06/09 14:20:36;;;;;;;9.50;5.93;;;;;;;;;;5048085;28;20064;-74
2022/06/09 14:23:11;;;;;;;13.50;6.38;;;;;;;;;;5050487;28;20068;-79
2022/06/09 14:25:41;;;;;;;7.05;5.07;;;;;;;;;;5061458;28;20044;-74
2022/06/09 14:28:11;;;;;;;7.07;6.38;;;;;;;;;;5073744;28;20041;-74
2022/06/09 14:30:41;;;;;;;6.00;4.82;;;;;;;;;;5073619;28;20107;-75
2022/06/09 14:33:14;;;;;;;13.02;5.88;;;;;;;;;;5074241;28;20041;-75
2022/06/09 14:35:45;;;;;;;6.65;4.75;;;;;;;;;;5064577;28;20068;-82
2022/06/09 14:38:16;;;;;;;13.10;5.65;;;;;;;;;;5049386;28;20049;-74
2022/06/09 14:40:49;;;;;;;18.75;6.05;;;;;;;;;;5050052;28;20045;-79
2022/06/09 14:43:19;;;;;;;12.75;5.53;;;;;;;;;;5050708;28;20041;-75
2022/06/09 14:45:54;;;;;;;6.03;4.47;;;;;;;;;;5052407;28;20049;-74
2022/06/09 14:48:25;;;;;;;18.58;5.28;;;;;;;;;;5049149;28;20045;-74
2022/06/09 14:50:56;;;;;;;5.30;4.50;;;;;;;;;;5049342;28;20045;-75
2022/06/09 14:53:27;;;;;;;5.03;4.38;;;;;;;;;;5049178;28;20073;-74
2022/06/09 14:55:57;;;;;;;8.90;5.80;;;;;;;;;;5049025;28;20049;-75
2022/06/09 14:58:28;;;;;;;7.53;4.90;;;;;;;;;;5048399;28;20062;-74
2022/06/09 15:00:58;;;;;;;5.60;4.93;;;;;;;;;;5049072;28;20056;-74
2022/06/09 15:03:28;;;;;;;17.40;9.15;;;;;;;;;;5048700;28;20053;-74
2022/06/09 15:06:02;;;;;;;9.73;4.38;;;;;;;;;;5049427;28;20049;-74
2022/06/09 15:08:32;;;;;;;12.18;5.22;;;;;;;;;;5049522;28;21131;-74
2022/06/09 15:11:03;;;;;;;5.53;4.70;;;;;;;;;;5047933;28;20063;-77
2022/06/09 15:13:33;;;;;;;13.55;5.20;;;;;;;;;;5048778;28;20045;-76
2022/06/09 15:16:03;;;;;;;6.57;4.60;;;;;;;;;;5046889;28;20401;-74
2022/06/09 15:18:53;;;;;;;5.90;4.47;;;;;;;;;;5048506;28;20049;-75
2022/06/09 15:21:23;;;;;;;7.45;4.60;;;;;;;;;;5048369;28;20411;-76
2022/06/09 15:23:53;;;;;;;15.85;5.70;;;;;;;;;;5047885;28;20045;-74
2022/06/09 15:26:25;;;;;;;5.20;4.70;;;;;;;;;;5045878;28;20056;-74
2022/06/09 15:28:59;;;;;;;9.02;5.15;;;;;;;;;;5048509;28;20420;-74
2022/06/09 15:31:29;;;;;;;9.75;4.82;;;;;;;;;;5048440;28;20063;-74
2022/06/09 15:33:59;;;;;;;12.73;5.20;;;;;;;;;;5048069;28;20053;-74
2022/06/09 15:36:29;;;;;;;5.30;4.47;;;;;;;;;;5047810;28;20041;-74